Time;durP1;ratioP1;P1;durP2;ratioP2;P2;SDS_P1;SDS_P2;PMS_P1;PMS_P2;Temp;Humidity;BMP_temperature;BMP_pressure;BME280_temperature;BME280_humidity;BME280_pressure;Samples;Min_cycle;Max_cycle;Signal;HPM_P1;HPM_P2
2022/07/23 00:00:00;;;;;;;4.35;1.50;;;15.60;99.90;;;;;;5029917;28;19921;-47
2022/07/23 00:02:26;;;;;;;3.25;1.73;;;15.50;99.90;;;;;;5029613;28;20336;-47
2022/07/23 00:04:51;;;;;;;1.77;1.67;;;15.50;99.90;;;;;;5030611;28;20414;-47
2022/07/23 00:07:17;;;;;;;4.40;2.22;;;15.50;99.90;;;;;;5031641;28;20075;-47
2022/07/23 00:09:42;;;;;;;4.10;2.13;;;15.50;99.90;;;;;;5029236;28;20033;-48
2022/07/23 00:12:08;;;;;;;3.00;1.95;;;15.50;99.90;;;;;;5031430;28;20559;-49
2022/07/23 00:14:34;;;;;;;2.80;2.00;;;15.50;99.90;;;;;;5025334;28;20552;-47
2022/07/23 00:16:59;;;;;;;4.07;1.65;;;15.50;99.90;;;;;;5017795;28;20156;-47
2022/07/23 00:19:25;;;;;;;3.22;1.67;;;15.50;99.90;;;;;;5025448;28;20038;-48
2022/07/23 00:21:51;;;;;;;3.30;2.10;;;15.40;99.90;;;;;;5024610;28;20473;-46
2022/07/23 00:24:17;;;;;;;3.25;1.85;;;15.40;99.90;;;;;;5023164;28;20038;-51
2022/07/23 00:26:42;;;;;;;2.00;1.83;;;15.40;99.90;;;;;;5016805;28;20514;-52
2022/07/23 00:29:08;;;;;;;2.05;0.93;;;15.40;99.90;;;;;;5031100;28;20124;-52
2022/07/23 00:31:34;;;;;;;1.50;0.68;;;15.40;99.90;;;;;;5029655;28;20059;-51
2022/07/23 00:34:01;;;;;;;2.58;1.95;;;15.40;99.90;;;;;;5030215;28;20045;-51
2022/07/23 00:36:27;;;;;;;5.50;2.13;;;15.30;99.90;;;;;;5030338;28;20047;-53
2022/07/23 00:38:53;;;;;;;3.50;1.67;;;15.20;99.90;;;;;;5014891;28;20125;-52
2022/07/23 00:41:19;;;;;;;3.58;1.88;;;15.20;99.90;;;;;;5012575;28;20446;-52
2022/07/23 00:43:45;;;;;;;5.43;2.20;;;15.20;99.90;;;;;;5010863;28;20038;-53
2022/07/23 00:46:11;;;;;;;4.03;2.00;;;15.20;99.90;;;;;;5010703;28;20154;-51
2022/07/23 00:48:36;;;;;;;7.30;3.00;;;15.20;99.90;;;;;;5010796;28;20073;-49
2022/07/23 00:51:02;;;;;;;6.78;2.22;;;15.20;99.90;;;;;;5012412;28;20071;-53
2022/07/23 00:53:28;;;;;;;4.72;2.58;;;15.20;99.90;;;;;;5017068;28;20486;-53
2022/07/23 00:55:54;;;;;;;4.57;1.20;;;15.20;99.90;;;;;;5016807;28;20068;-53
2022/07/23 00:58:20;;;;;;;2.65;1.75;;;15.10;99.90;;;;;;5016575;28;20037;-49
2022/07/23 01:00:46;;;;;;;2.55;1.92;;;15.00;99.90;;;;;;5022518;28;20056;-53
2022/07/23 01:03:11;;;;;;;6.13;1.95;;;15.10;99.90;;;;;;5021814;28;20505;-52
2022/07/23 01:05:37;;;;;;;6.30;2.28;;;15.10;99.90;;;;;;5011600;28;20065;-51
2022/07/23 01:08:05;;;;;;;2.25;1.75;;;15.10;99.90;;;;;;5013874;28;20041;-51
2022/07/23 01:10:33;;;;;;;3.15;1.88;;;15.10;99.90;;;;;;5012182;28;20034;-53
2022/07/23 01:13:01;;;;;;;2.30;2.05;;;15.10;99.90;;;;;;5017706;28;20052;-52
2022/07/23 01:15:28;;;;;;;4.15;2.45;;;15.10;99.90;;;;;;5026626;28;20042;-51
2022/07/23 01:17:53;;;;;;;3.95;2.47;;;15.10;99.90;;;;;;5021521;28;20037;-52
2022/07/23 01:20:19;;;;;;;3.42;2.13;;;15.10;99.90;;;;;;5017148;28;20043;-49
2022/07/23 01:22:46;;;;;;;2.90;2.55;;;15.00;99.90;;;;;;5026029;28;20045;-52
2022/07/23 01:25:11;;;;;;;6.82;2.50;;;15.00;99.90;;;;;;5022600;28;20078;-50
2022/07/23 01:27:37;;;;;;;4.50;2.00;;;15.00;99.90;;;;;;5025350;28;20499;-49
2022/07/23 01:30:03;;;;;;;4.63;2.08;;;15.00;99.90;;;;;;5022663;28;20103;-53
2022/07/23 01:32:29;;;;;;;2.03;1.83;;;15.10;99.90;;;;;;5021200;28;20400;-51
2022/07/23 01:34:55;;;;;;;6.45;2.20;;;15.00;99.90;;;;;;5010531;28;20053;-52
2022/07/23 01:37:20;;;;;;;3.00;2.22;;;15.00;99.90;;;;;;5016476;28;20042;-48
2022/07/23 01:39:46;;;;;;;2.58;2.38;;;15.00;99.90;;;;;;5011218;28;20034;-50
2022/07/23 01:42:11;;;;;;;2.85;2.50;;;15.00;99.90;;;;;;5014634;28;20048;-48
2022/07/23 01:44:37;;;;;;;4.07;2.47;;;15.00;99.90;;;;;;5021026;28;20064;-47
2022/07/23 01:47:03;;;;;;;1.80;1.65;;;15.00;99.90;;;;;;5019465;28;20112;-52
2022/07/23 01:49:28;;;;;;;5.95;3.15;;;15.00;99.90;;;;;;5013600;28;20045;-49
2022/07/23 01:52:00;;;;;;;2.38;2.17;;;15.00;99.90;;;;;;5010947;28;20069;-51
2022/07/23 01:54:27;;;;;;;10.45;2.92;;;15.00;99.90;;;;;;5013775;28;20038;-51
2022/07/23 01:56:52;;;;;;;5.35;2.60;;;15.00;99.90;;;;;;5018238;28;20077;-51
2022/07/23 01:59:18;;;;;;;4.43;1.90;;;15.00;99.90;;;;;;5016867;28;20507;-53
2022/07/23 02:01:43;;;;;;;4.05;2.70;;;15.00;99.90;;;;;;5020706;28;20038;-46
2022/07/23 02:04:09;;;;;;;5.82;3.08;;;14.90;99.90;;;;;;5017139;28;20030;-49
2022/07/23 02:06:35;;;;;;;4.22;2.47;;;14.90;99.90;;;;;;5021213;28;20109;-51
2022/07/23 02:09:00;;;;;;;5.30;2.85;;;14.90;99.90;;;;;;5027190;28;20072;-47
2022/07/23 02:11:26;;;;;;;3.10;2.75;;;14.90;99.90;;;;;;5009837;28;20052;-50
2022/07/23 02:13:51;;;;;;;4.63;3.65;;;14.90;99.90;;;;;;5017755;28;20044;-50
2022/07/23 02:16:17;;;;;;;5.75;3.05;;;14.90;99.90;;;;;;5014839;28;20112;-52
2022/07/23 02:18:42;;;;;;;3.00;2.15;;;14.90;99.90;;;;;;5016217;28;20042;-48
2022/07/23 02:21:08;;;;;;;2.95;2.75;;;14.90;99.90;;;;;;5009850;28;20042;-47
2022/07/23 02:23:33;;;;;;;2.95;2.65;;;14.90;99.90;;;;;;5004677;28;20049;-47
2022/07/23 02:25:59;;;;;;;6.82;2.97;;;14.90;99.90;;;;;;5008504;28;20034;-50
2022/07/23 02:28:25;;;;;;;3.13;2.88;;;14.90;99.90;;;;;;5010615;28;20053;-51
2022/07/23 02:30:50;;;;;;;5.93;2.53;;;14.90;99.90;;;;;;5009790;28;20038;-51
2022/07/23 02:33:16;;;;;;;3.70;3.03;;;14.90;99.90;;;;;;5009548;28;20411;-48
2022/07/23 02:35:41;;;;;;;4.25;3.22;;;14.90;99.90;;;;;;5009725;28;20135;-47
2022/07/23 02:38:07;;;;;;;2.42;2.22;;;14.90;99.90;;;;;;5009834;28;20045;-48
2022/07/23 02:40:32;;;;;;;4.03;2.97;;;14.90;99.90;;;;;;5014660;28;20474;-49
2022/07/23 02:42:58;;;;;;;4.97;3.30;;;14.80;99.90;;;;;;5012517;28;20041;-49
2022/07/23 02:45:24;;;;;;;4.15;3.03;;;14.80;99.90;;;;;;5013836;28;20045;-53
2022/07/23 02:47:49;;;;;;;4.30;3.67;;;14.80;99.90;;;;;;5014482;28;20407;-48
2022/07/23 02:50:15;;;;;;;5.15;3.47;;;14.70;99.90;;;;;;5021834;28;20455;-50
2022/07/23 02:52:40;;;;;;;5.47;3.35;;;14.70;99.90;;;;;;5019171;28;20042;-48
2022/07/23 02:55:07;;;;;;;3.42;3.10;;;14.60;99.90;;;;;;5026697;28;20123;-51
2022/07/23 02:57:32;;;;;;;4.55;3.17;;;14.60;99.90;;;;;;5022823;28;20075;-49
2022/07/23 02:59:58;;;;;;;3.67;2.63;;;14.60;99.90;;;;;;5026643;28;20076;-47
2022/07/23 03:02:23;;;;;;;4.15;2.88;;;14.50;99.90;;;;;;5013902;28;20038;-49
2022/07/23 03:04:50;;;;;;;4.28;3.40;;;14.50;99.90;;;;;;5015421;28;20372;-47
2022/07/23 03:07:16;;;;;;;;;;;14.50;99.90;;;;;;5030882;28;20041;-50
2022/07/23 03:09:41;;;;;;;6.07;2.80;;;14.50;99.90;;;;;;5019092;28;19917;-50
2022/07/23 03:12:07;;;;;;;3.13;2.50;;;14.40;99.90;;;;;;5013971;28;20096;-51
2022/07/23 03:14:33;;;;;;;12.35;3.58;;;14.40;99.90;;;;;;5024732;28;20037;-48
2022/07/23 03:16:59;;;;;;;2.08;1.77;;;14.40;99.90;;;;;;5021367;28;20091;-47
2022/07/23 03:19:25;;;;;;;1.88;0.90;;;14.30;99.90;;;;;;5025965;28;20037;-51
2022/07/23 03:21:51;;;;;;;0.60;0.50;;;14.20;99.90;;;;;;5027518;28;20040;-51
2022/07/23 03:24:17;;;;;;;1.23;0.40;;;14.20;99.90;;;;;;5030387;28;20090;-49
2022/07/23 03:26:43;;;;;;;0.90;0.40;;;14.20;99.90;;;;;;5021225;28;20049;-49
2022/07/23 03:29:09;;;;;;;0.80;0.35;;;14.20;99.90;;;;;;5025167;28;20068;-53
2022/07/23 03:31:35;;;;;;;3.05;0.82;;;14.10;99.90;;;;;;5021336;28;20046;-51
2022/07/23 03:34:01;;;;;;;2.28;0.63;;;14.10;99.90;;;;;;5012281;28;20038;-47
2022/07/23 03:36:26;;;;;;;1.48;0.60;;;14.10;99.90;;;;;;5022073;28;20041;-49
2022/07/23 03:38:53;;;;;;;2.15;0.55;;;14.00;99.90;;;;;;5020734;28;20121;-52
2022/07/23 03:41:19;;;;;;;1.25;0.50;;;13.90;99.90;;;;;;5017383;28;20377;-47
2022/07/23 03:43:45;;;;;;;0.95;0.70;;;13.90;99.90;;;;;;5016179;28;20559;-48
2022/07/23 03:46:10;;;;;;;1.30;0.60;;;13.90;99.90;;;;;;5020483;28;20109;-48
2022/07/23 03:48:36;;;;;;;0.60;0.40;;;13.80;99.90;;;;;;5029724;28;20445;-51
2022/07/23 03:51:02;;;;;;;2.97;0.38;;;13.80;99.90;;;;;;5019781;28;20045;-50
2022/07/23 03:53:28;;;;;;;1.23;0.95;;;13.80;99.90;;;;;;5023937;28;20083;-46
2022/07/23 03:55:54;;;;;;;0.95;0.60;;;13.80;99.90;;;;;;5014495;28;20045;-46
2022/07/23 03:58:19;;;;;;;1.10;1.00;;;13.80;99.90;;;;;;5020973;28;20033;-51
2022/07/23 04:00:45;;;;;;;0.95;0.57;;;13.80;99.90;;;;;;5020452;28;20038;-47
2022/07/23 04:03:10;;;;;;;2.05;0.30;;;13.80;99.90;;;;;;5023379;28;20069;-47
2022/07/23 04:05:36;;;;;;;0.30;0.20;;;13.80;99.90;;;;;;5021512;28;20535;-47
2022/07/23 04:08:02;;;;;;;1.08;0.35;;;13.80;99.90;;;;;;5029423;28;20033;-51
2022/07/23 04:10:27;;;;;;;0.60;0.30;;;13.80;99.90;;;;;;5018130;28;20116;-47
2022/07/23 04:12:53;;;;;;;0.85;0.57;;;13.70;99.90;;;;;;5012863;28;20050;-47
2022/07/23 04:15:18;;;;;;;0.50;0.40;;;13.70;99.90;;;;;;5012918;28;20125;-47
2022/07/23 04:17:45;;;;;;;1.08;0.22;;;13.70;99.90;;;;;;5013352;28;20045;-47
2022/07/23 04:20:11;;;;;;;0.40;0.20;;;13.70;99.90;;;;;;5011716;28;20407;-47
2022/07/23 04:22:37;;;;;;;0.10;0.10;;;13.70;99.90;;;;;;5011345;28;20029;-47
2022/07/23 04:25:03;;;;;;;0.10;0.10;;;13.60;99.90;;;;;;5012488;28;20516;-46
2022/07/23 04:27:28;;;;;;;0.30;0.10;;;13.60;99.90;;;;;;5022220;28;20041;-48
2022/07/23 04:29:54;;;;;;;0.20;0.10;;;13.60;99.90;;;;;;5031256;28;20087;-51
2022/07/23 04:32:19;;;;;;;1.13;0.30;;;13.60;99.90;;;;;;5030969;28;20095;-50
2022/07/23 04:34:45;;;;;;;1.30;0.70;;;13.60;99.90;;;;;;5029292;28;20045;-47
2022/07/23 04:37:10;;;;;;;1.77;0.60;;;13.60;99.90;;;;;;5030452;28;20044;-47
2022/07/23 04:39:36;;;;;;;1.47;1.37;;;13.60;99.90;;;;;;5030058;28;20048;-47
2022/07/23 04:42:01;;;;;;;2.05;1.95;;;13.60;99.90;;;;;;5031142;28;20037;-46
2022/07/23 04:44:27;;;;;;;2.30;2.10;;;13.70;99.90;;;;;;5030834;28;20387;-49
2022/07/23 04:46:53;;;;;;;2.83;2.63;;;13.70;99.90;;;;;;5021541;28;20033;-47
2022/07/23 04:49:18;;;;;;;4.97;3.30;;;13.80;99.90;;;;;;5023410;28;20045;-47
2022/07/23 04:51:44;;;;;;;8.68;4.10;;;13.80;99.90;;;;;;5026742;28;20495;-47
2022/07/23 04:54:09;;;;;;;4.05;3.38;;;13.90;99.90;;;;;;5014882;28;20046;-45
2022/07/23 04:56:35;;;;;;;5.00;3.75;;;13.90;99.90;;;;;;5014370;28;20069;-49
2022/07/23 04:59:00;;;;;;;4.53;3.58;;;14.00;99.90;;;;;;5015577;28;20076;-46
2022/07/23 05:01:26;;;;;;;3.92;3.63;;;14.00;99.90;;;;;;5028020;28;20034;-46
2022/07/23 05:03:51;;;;;;;7.47;4.60;;;14.10;99.90;;;;;;5012026;28;20103;-47
2022/07/23 05:06:17;;;;;;;4.97;4.13;;;14.10;99.90;;;;;;5026702;28;20280;-48
2022/07/23 05:08:42;;;;;;;9.05;3.92;;;14.10;99.90;;;;;;5025971;28;20120;-47
2022/07/23 05:11:08;;;;;;;5.32;4.50;;;14.20;99.90;;;;;;5011510;28;20042;-47
2022/07/23 05:13:34;;;;;;;4.40;4.00;;;14.20;99.90;;;;;;5011795;28;20053;-47
2022/07/23 05:15:59;;;;;;;10.23;4.22;;;14.30;99.90;;;;;;5013250;28;20065;-47
2022/07/23 05:18:25;;;;;;;5.45;3.75;;;14.30;99.90;;;;;;5026402;28;20120;-48
2022/07/23 05:20:50;;;;;;;4.50;4.00;;;14.40;99.90;;;;;;5014023;28;20064;-46
2022/07/23 05:23:16;;;;;;;3.80;3.20;;;14.50;99.90;;;;;;5021756;28;20399;-47
2022/07/23 05:25:42;;;;;;;4.53;3.63;;;14.60;99.90;;;;;;5014624;28;20125;-47
2022/07/23 05:28:07;;;;;;;4.68;3.30;;;14.60;99.90;;;;;;5015488;28;20040;-47
2022/07/23 05:30:33;;;;;;;5.72;3.95;;;14.70;99.90;;;;;;5014112;28;20112;-47
2022/07/23 05:32:58;;;;;;;5.90;3.72;;;14.80;99.90;;;;;;5022089;28;20036;-47
2022/07/23 05:35:24;;;;;;;5.03;3.28;;;14.90;99.90;;;;;;5015136;28;20041;-47
2022/07/23 05:37:52;;;;;;;3.83;3.28;;;15.00;99.90;;;;;;5014974;28;20037;-46
2022/07/23 05:40:18;;;;;;;5.80;3.92;;;15.00;99.90;;;;;;5015861;28;20049;-47
2022/07/23 05:42:43;;;;;;;4.22;3.22;;;15.10;99.90;;;;;;5012259;28;20546;-48
2022/07/23 05:45:10;;;;;;;3.90;3.45;;;15.10;99.90;;;;;;5022867;28;20049;-47
2022/07/23 05:47:40;;;;;;;4.93;3.83;;;15.20;99.90;;;;;;5016288;28;20056;-46
2022/07/23 05:50:06;;;;;;;5.28;3.38;;;15.30;99.90;;;;;;5026310;28;20034;-47
2022/07/23 05:52:32;;;;;;;9.50;3.65;;;15.40;99.90;;;;;;5028175;28;20056;-46
2022/07/23 05:54:57;;;;;;;9.35;3.95;;;15.50;99.90;;;;;;5026934;28;20053;-49
2022/07/23 05:57:23;;;;;;;5.15;3.60;;;15.50;99.90;;;;;;5011039;28;20045;-48
2022/07/23 05:59:48;;;;;;;4.55;3.40;;;15.60;99.90;;;;;;5028353;28;20116;-49
2022/07/23 06:02:14;;;;;;;4.13;3.00;;;15.70;99.90;;;;;;5017662;28;20113;-46
2022/07/23 06:04:39;;;;;;;7.95;3.90;;;15.80;99.90;;;;;;5009826;28;20440;-47
2022/07/23 06:07:05;;;;;;;3.10;2.38;;;15.90;99.90;;;;;;5025616;28;20116;-47
2022/07/23 06:09:30;;;;;;;3.67;2.33;;;16.00;99.90;;;;;;5013197;28;20126;-47
2022/07/23 06:11:56;;;;;;;6.15;2.47;;;16.10;99.90;;;;;;5011799;28;20130;-47
2022/07/23 06:14:21;;;;;;;7.13;2.70;;;16.20;99.90;;;;;;5011810;28;20046;-46
2022/07/23 06:16:48;;;;;;;5.68;2.85;;;16.20;99.90;;;;;;5013869;28;20037;-47
2022/07/23 06:19:13;;;;;;;5.72;3.15;;;16.30;99.90;;;;;;5013855;28;20048;-47
2022/07/23 06:21:39;;;;;;;9.68;4.40;;;16.30;99.90;;;;;;5027778;28;20045;-48
2022/07/23 06:24:04;;;;;;;4.50;3.10;;;16.30;99.90;;;;;;5032486;28;20515;-48
2022/07/23 06:26:30;;;;;;;5.75;3.22;;;16.30;99.90;;;;;;5033033;28;20120;-48
2022/07/23 06:28:56;;;;;;;6.43;2.33;;;16.30;99.90;;;;;;5033490;28;20091;-47
2022/07/23 06:31:21;;;;;;;6.75;2.67;;;16.40;99.90;;;;;;5030616;28;20049;-49
2022/07/23 06:33:47;;;;;;;8.68;3.03;;;16.50;99.90;;;;;;5021102;28;20094;-48
2022/07/23 06:36:12;;;;;;;5.03;2.40;;;16.70;99.90;;;;;;5023691;28;20087;-47
2022/07/23 06:38:38;;;;;;;4.13;2.83;;;16.80;99.90;;;;;;5016411;28;20411;-47
2022/07/23 06:41:03;;;;;;;7.05;1.90;;;16.80;99.90;;;;;;5032027;28;20453;-47
2022/07/23 06:43:31;;;;;;;4.25;2.33;;;16.90;99.90;;;;;;5030011;28;20042;-48
2022/07/23 06:45:56;;;;;;;6.22;1.73;;;16.90;99.90;;;;;;5033844;28;20033;-49
2022/07/23 06:48:22;;;;;;;4.57;1.60;;;17.00;99.90;;;;;;5031494;28;20049;-46
2022/07/23 06:50:48;;;;;;;5.47;1.88;;;17.10;99.90;;;;;;5014354;28;20515;-47
2022/07/23 06:53:13;;;;;;;5.60;2.25;;;17.20;99.90;;;;;;5022358;28;20380;-50
2022/07/23 06:55:39;;;;;;;5.47;2.25;;;17.30;99.90;;;;;;5013350;28;20511;-49
2022/07/23 06:58:05;;;;;;;2.53;1.40;;;17.40;99.90;;;;;;5013296;28;20073;-48
2022/07/23 07:00:32;;;;;;;4.90;0.95;;;17.50;99.90;;;;;;5023929;28;20381;-49
2022/07/23 07:02:58;;;;;;;3.10;1.33;;;17.50;99.90;;;;;;5024418;28;20454;-49
2022/07/23 07:05:25;;;;;;;3.00;1.25;;;17.60;99.90;;;;;;5014624;28;20049;-48
2022/07/23 07:07:51;;;;;;;6.75;1.30;;;17.70;99.90;;;;;;5012911;28;20045;-47
2022/07/23 07:10:17;;;;;;;3.35;1.13;;;17.80;99.90;;;;;;5028700;28;20046;-48
2022/07/23 07:12:43;;;;;;;4.78;1.40;;;17.80;99.90;;;;;;5013196;28;20046;-48
2022/07/23 07:15:08;;;;;;;3.88;1.55;;;17.90;99.90;;;;;;5013960;28;20521;-48
2022/07/23 07:17:34;;;;;;;3.60;1.15;;;18.00;99.90;;;;;;5012718;28;20112;-48
2022/07/23 07:20:00;;;;;;;2.30;0.70;;;18.10;99.90;;;;;;5012350;28;20042;-48
2022/07/23 07:22:25;;;;;;;1.85;0.80;;;18.20;99.90;;;;;;5012813;28;20412;-49
2022/07/23 07:24:51;;;;;;;2.88;1.00;;;18.20;99.90;;;;;;5029282;28;20037;-48
2022/07/23 07:27:16;;;;;;;4.20;1.20;;;18.20;99.90;;;;;;5022684;28;20034;-49
2022/07/23 07:29:42;;;;;;;5.75;1.17;;;18.30;99.90;;;;;;5015405;28;20050;-48
2022/07/23 07:32:07;;;;;;;3.70;0.40;;;18.30;99.90;;;;;;5031111;28;20045;-47
2022/07/23 07:34:33;;;;;;;1.50;0.50;;;18.40;99.90;;;;;;5030320;28;20506;-48
2022/07/23 07:36:59;;;;;;;2.75;0.70;;;18.50;99.90;;;;;;5031051;28;20547;-48
2022/07/23 07:39:24;;;;;;;2.47;0.77;;;18.50;99.90;;;;;;5028200;28;20045;-49
2022/07/23 07:41:50;;;;;;;1.50;0.70;;;18.60;99.90;;;;;;5025455;28;20029;-48
2022/07/23 07:44:16;;;;;;;0.88;0.77;;;18.80;99.90;;;;;;5014089;28;20042;-48
2022/07/23 07:46:41;;;;;;;;;;;18.90;99.90;;;;;;5020235;28;20053;-47
2022/07/23 07:49:07;;;;;;;1.50;0.60;;;19.00;99.90;;;;;;5012119;28;19917;-50
2022/07/23 07:51:33;;;;;;;1.02;0.47;;;19.10;99.90;;;;;;5031837;28;20077;-48
2022/07/23 07:53:58;;;;;;;2.90;0.40;;;19.20;99.90;;;;;;5024372;28;20070;-47
2022/07/23 07:56:24;;;;;;;2.20;1.08;;;19.10;99.90;;;;;;5012105;28;20056;-47
2022/07/23 07:58:50;;;;;;;4.18;0.68;;;19.00;99.90;;;;;;5014714;28;20046;-49
2022/07/23 08:01:16;;;;;;;2.97;0.85;;;19.00;99.90;;;;;;5021600;28;20036;-49
2022/07/23 08:03:42;;;;;;;3.72;0.77;;;19.10;99.90;;;;;;5028878;28;20460;-48
2022/07/23 08:06:08;;;;;;;2.80;0.40;;;19.10;99.90;;;;;;5030190;28;20052;-48
2022/07/23 08:08:33;;;;;;;2.90;0.95;;;19.30;99.90;;;;;;5013178;28;21109;-51
2022/07/23 08:10:59;;;;;;;1.15;0.43;;;19.30;99.90;;;;;;5016338;28;20604;-48
2022/07/23 08:13:25;;;;;;;1.27;0.38;;;19.50;99.90;;;;;;5028850;28;20502;-48
2022/07/23 08:15:52;;;;;;;21.73;1.52;;;19.60;99.90;;;;;;5013602;28;20491;-48
2022/07/23 08:18:18;;;;;;;1.58;0.45;;;19.60;99.90;;;;;;5020242;28;20051;-47
2022/07/23 08:20:44;;;;;;;3.65;0.47;;;19.70;99.90;;;;;;5024333;28;20467;-44
2022/07/23 08:23:10;;;;;;;2.67;0.38;;;19.60;99.90;;;;;;5012501;28;20029;-46
2022/07/23 08:25:41;;;;;;;2.80;0.40;;;19.70;99.40;;;;;;5027992;28;20054;-47
2022/07/23 08:28:12;;;;;;;2.15;0.50;;;19.70;99.20;;;;;;5013871;28;20049;-45
2022/07/23 08:30:38;;;;;;;2.60;0.32;;;19.90;99.60;;;;;;5027550;28;20041;-47
2022/07/23 08:33:07;;;;;;;3.55;0.55;;;20.00;99.20;;;;;;5029222;28;20091;-45
2022/07/23 08:35:36;;;;;;;2.50;0.80;;;20.20;99.40;;;;;;5019901;28;20077;-48
2022/07/23 08:38:05;;;;;;;2.65;0.50;;;20.20;99.00;;;;;;5015549;28;20042;-48
2022/07/23 08:40:34;;;;;;;1.35;0.30;;;20.30;98.80;;;;;;5012348;28;20046;-48
2022/07/23 08:43:05;;;;;;;0.95;0.20;;;20.30;98.30;;;;;;5010706;28;20408;-47
2022/07/23 08:45:34;;;;;;;5.03;0.73;;;20.20;97.70;;;;;;5024641;28;20117;-48
2022/07/23 08:48:00;;;;;;;2.85;0.20;;;20.10;97.90;;;;;;5011073;28;20044;-47
2022/07/23 08:50:26;;;;;;;1.70;0.30;;;20.20;98.10;;;;;;5013059;28;20037;-47
2022/07/23 08:52:53;;;;;;;1.60;0.20;;;20.30;98.20;;;;;;5024097;28;20115;-48
2022/07/23 08:55:20;;;;;;;2.58;0.30;;;20.40;98.10;;;;;;5019991;28;20053;-45
2022/07/23 08:57:49;;;;;;;1.25;0.20;;;20.40;97.70;;;;;;5011074;28;20080;-47
2022/07/23 09:00:15;;;;;;;0.73;0.20;;;20.40;97.70;;;;;;5012117;28;20048;-47
2022/07/23 09:02:42;;;;;;;0.68;0.28;;;20.40;97.90;;;;;;5013282;28;20117;-47
2022/07/23 09:05:12;;;;;;;1.75;0.20;;;20.50;97.40;;;;;;5028148;28;20029;-48
2022/07/23 09:07:58;;;;;;;2.15;0.20;;;20.50;97.20;;;;;;5030653;28;20037;-49
2022/07/23 09:10:23;;;;;;;1.65;0.10;;;20.60;97.80;;;;;;5014204;28;20076;-50
2022/07/23 09:12:49;;;;;;;1.05;0.20;;;20.70;97.50;;;;;;5009655;28;20743;-47
2022/07/23 09:15:14;;;;;;;;;;;20.80;97.40;;;;;;5018319;28;20042;-48
2022/07/23 09:17:42;;;;;;;1.05;0.20;;;20.90;96.60;;;;;;5015646;28;19917;-48
2022/07/23 09:20:14;;;;;;;0.40;0.10;;;20.90;96.50;;;;;;5015074;28;20515;-52
2022/07/23 09:22:47;;;;;;;0.85;0.20;;;21.00;96.70;;;;;;5014212;28;20136;-49
2022/07/23 09:25:16;;;;;;;1.80;0.10;;;21.10;96.40;;;;;;5016027;28;20377;-48
2022/07/23 09:28:07;;;;;;;1.10;0.20;;;21.20;96.90;;;;;;5015309;28;20050;-49
2022/07/23 09:30:34;;;;;;;1.25;0.30;;;21.30;96.10;;;;;;5023294;28;20049;-48
2022/07/23 09:33:15;;;;;;;0.68;0.20;;;21.30;96.20;;;;;;5049697;28;20037;-50
2022/07/23 09:35:50;;;;;;;0.95;0.20;;;21.30;95.70;;;;;;5034209;28;20081;-50
2022/07/23 09:38:17;;;;;;;0.47;0.10;;;21.20;95.50;;;;;;5030160;28;20482;-48
2022/07/23 09:40:44;;;;;;;0.85;0.10;;;21.10;95.90;;;;;;5027378;28;20111;-47
2022/07/23 09:43:10;;;;;;;2.03;0.15;;;21.00;95.60;;;;;;5028281;28;20092;-48
2022/07/23 09:45:35;;;;;;;;;;;20.90;95.70;;;;;;5021098;28;20038;-48
2022/07/23 09:48:16;;;;;;;3.00;0.20;;;20.90;95.30;;;;;;5019545;28;20593;-47
2022/07/23 09:50:43;;;;;;;2.17;0.20;;;21.00;95.90;;;;;;5036031;28;20049;-48
2022/07/23 09:53:10;;;;;;;3.70;0.20;;;21.00;96.10;;;;;;5015296;28;20041;-48
2022/07/23 09:55:39;;;;;;;1.58;0.20;;;21.00;96.00;;;;;;5017921;28;20052;-47
2022/07/23 09:58:17;;;;;;;0.63;0.25;;;21.00;95.60;;;;;;5034384;28;20037;-51
2022/07/23 10:00:44;;;;;;;0.43;0.20;;;21.00;95.40;;;;;;5023773;28;20062;-48
2022/07/23 10:03:12;;;;;;;1.05;0.20;;;21.00;95.60;;;;;;5014020;28;20390;-48
2022/07/23 10:05:39;;;;;;;3.75;0.20;;;21.00;95.50;;;;;;5016515;28;20042;-48
2022/07/23 10:08:09;;;;;;;4.05;0.57;;;21.00;95.30;;;;;;5013825;28;20046;-48
2022/07/23 10:10:35;;;;;;;1.83;0.20;;;20.90;95.60;;;;;;5013656;28;20132;-48
2022/07/23 10:15:44;;;;;;;0.47;0.20;;;21.00;95.80;;;;;;5033589;28;19917;-47
2022/07/23 10:18:11;;;;;;;;;;;21.00;95.80;;;;;;5034189;28;20045;-48
2022/07/23 10:20:36;;;;;;;0.40;0.20;;;21.10;95.20;;;;;;5029352;28;20120;-48
2022/07/23 10:23:14;;;;;;;;;;;21.30;95.20;;;;;;5028092;28;20176;-48
2022/07/23 10:26:16;;;;;;;1.80;0.20;;;21.40;95.20;;;;;;5026061;28;19928;-48
2022/07/23 10:29:05;;;;;;;0.52;0.20;;;21.60;95.20;;;;;;5033040;28;20529;-48
2022/07/23 10:32:00;;;;;;;1.05;0.20;;;21.70;95.20;;;;;;5025570;28;20033;-48
2022/07/23 10:34:44;;;;;;;1.48;0.20;;;21.70;94.70;;;;;;5017981;28;20648;-48
2022/07/23 10:37:23;;;;;;;1.48;0.28;;;21.80;94.70;;;;;;5025075;28;20150;-50
2022/07/23 10:40:12;;;;;;;0.65;0.20;;;21.90;94.70;;;;;;5021442;28;20054;-48
2022/07/23 10:42:38;;;;;;;2.17;0.60;;;22.00;94.40;;;;;;5027838;28;20394;-50
2022/07/23 10:45:27;;;;;;;1.60;0.30;;;22.00;94.80;;;;;;5031364;28;20037;-49
2022/07/23 10:47:53;;;;;;;1.85;0.30;;;21.90;94.20;;;;;;5015981;28;20051;-52
2022/07/23 10:50:34;;;;;;;0.95;0.50;;;21.80;94.60;;;;;;5020427;28;20565;-47
2022/07/23 10:53:09;;;;;;;1.45;0.30;;;21.90;94.80;;;;;;5027761;28;20040;-49
2022/07/23 10:55:34;;;;;;;2.58;0.20;;;21.90;93.80;;;;;;5031996;28;20135;-53
2022/07/23 10:58:01;;;;;;;;;;;21.80;93.90;;;;;;5031686;28;20526;-48
2022/07/23 11:00:28;;;;;;;1.13;0.40;;;21.90;94.10;;;;;;5022902;28;19922;-53
2022/07/23 11:03:06;;;;;;;0.77;0.40;;;22.10;95.10;;;;;;5026978;28;20037;-51
2022/07/23 11:05:44;;;;;;;0.93;0.20;;;22.20;93.50;;;;;;5032761;28;20037;-53
2022/07/23 11:08:16;;;;;;;0.85;0.20;;;22.10;93.60;;;;;;5030957;28;20056;-54
2022/07/23 11:10:41;;;;;;;2.50;0.28;;;22.00;93.60;;;;;;5033099;28;20410;-53
2022/07/23 11:13:22;;;;;;;;;;;21.90;93.40;;;;;;5030049;28;20034;-54
2022/07/23 11:16:02;;;;;;;1.08;0.32;;;21.80;94.20;;;;;;5032531;28;20033;-54
2022/07/23 11:18:40;;;;;;;3.03;0.50;;;21.90;94.00;;;;;;5014960;28;20056;-51
2022/07/23 11:21:21;;;;;;;0.85;0.50;;;22.10;94.00;;;;;;5012767;28;20041;-53
2022/07/23 11:24:07;;;;;;;1.60;0.93;;;22.10;92.60;;;;;;5030250;28;20034;-53
2022/07/23 11:26:46;;;;;;;17.13;11.30;;;22.20;92.90;;;;;;5013068;28;20485;-52
2022/07/23 11:29:31;;;;;;;2.90;0.70;;;22.20;93.10;;;;;;5012479;28;20484;-53
2022/07/23 11:31:57;;;;;;;1.48;0.20;;;22.30;93.50;;;;;;5012715;28;20053;-51
2022/07/23 11:34:39;;;;;;;1.25;0.20;;;22.30;93.30;;;;;;5011576;28;20057;-53
2022/07/23 11:37:08;;;;;;;0.95;0.30;;;22.40;92.90;;;;;;5013601;28;20049;-54
2022/07/23 11:39:34;;;;;;;0.93;0.40;;;22.40;93.30;;;;;;5012239;28;20042;-53
2022/07/23 11:42:04;;;;;;;1.65;0.38;;;22.40;93.30;;;;;;5014009;28;20096;-53
2022/07/23 11:44:37;;;;;;;0.73;0.40;;;22.50;93.40;;;;;;5031362;28;20077;-52
2022/07/23 11:47:05;;;;;;;1.77;0.80;;;22.50;92.60;;;;;;5030136;28;20071;-52
2022/07/23 11:49:31;;;;;;;1.83;1.00;;;22.60;92.70;;;;;;5031966;28;20128;-53
2022/07/23 11:52:04;;;;;;;1.17;0.57;;;22.60;92.40;;;;;;5031653;28;20056;-53
2022/07/23 11:54:31;;;;;;;5.45;1.35;;;22.60;92.70;;;;;;5011793;28;20081;-52
2022/07/23 11:57:00;;;;;;;2.20;0.85;;;22.70;92.60;;;;;;5011670;28;20513;-54
2022/07/23 11:59:28;;;;;;;1.55;0.40;;;22.80;92.30;;;;;;5030565;28;20049;-54
2022/07/23 12:02:01;;;;;;;1.60;0.60;;;22.90;92.10;;;;;;5031629;28;20475;-53
2022/07/23 12:04:41;;;;;;;3.33;0.65;;;22.90;92.00;;;;;;5031157;28;20521;-53
2022/07/23 12:07:32;;;;;;;1.67;0.40;;;23.10;91.40;;;;;;5031503;28;20037;-53
2022/07/23 12:10:00;;;;;;;1.27;0.20;;;23.10;91.60;;;;;;5031709;28;20128;-53
2022/07/23 12:12:26;;;;;;;0.60;0.30;;;23.00;91.60;;;;;;5029179;28;20116;-55
2022/07/23 12:14:52;;;;;;;;;;;23.00;91.60;;;;;;5012037;28;20145;-54
2022/07/23 12:17:18;;;;;;;1.50;0.30;;;23.10;91.10;;;;;;5011564;28;19971;-55
2022/07/23 12:19:44;;;;;;;2.85;0.38;;;23.20;92.10;;;;;;5012478;28;20419;-54
2022/07/23 12:22:10;;;;;;;0.65;0.30;;;23.20;92.20;;;;;;5011175;28;20087;-54
2022/07/23 12:24:55;;;;;;;2.25;0.32;;;23.20;92.10;;;;;;5012516;28;20042;-56
2022/07/23 12:27:22;;;;;;;1.38;0.20;;;23.20;91.30;;;;;;5011555;28;20357;-54
2022/07/23 12:29:48;;;;;;;0.63;0.30;;;23.30;91.60;;;;;;5011741;28;20061;-54
2022/07/23 12:32:26;;;;;;;3.97;0.47;;;23.30;91.60;;;;;;5011365;28;20038;-54
2022/07/23 12:35:04;;;;;;;5.13;0.40;;;23.40;90.90;;;;;;5029067;28;20529;-54
2022/07/23 12:37:41;;;;;;;1.85;0.30;;;23.40;90.70;;;;;;5031037;28;20040;-51
2022/07/23 12:40:36;;;;;;;1.02;0.30;;;23.40;91.20;;;;;;5029174;28;20049;-54
2022/07/23 12:43:10;;;;;;;0.88;0.30;;;23.40;90.90;;;;;;5027476;28;20049;-53
2022/07/23 12:46:04;;;;;;;1.38;0.32;;;23.40;90.50;;;;;;5009918;28;20046;-53
2022/07/23 12:48:36;;;;;;;0.35;0.20;;;23.20;90.20;;;;;;5010368;28;20061;-50
2022/07/23 12:51:27;;;;;;;2.33;0.80;;;23.20;90.80;;;;;;5011147;28;20492;-52
2022/07/23 12:53:54;;;;;;;0.77;0.30;;;23.20;90.30;;;;;;5018361;28;20038;-51